Illinois City, Illinois
Current Conditions -  °F | °C
As of 10:35 AM on Thursday 29 Jan 2015 (Local Time) from KMUT Reporting Station
Overcast Overcast  
Wind Chill: 29°   Ceiling: 1800
Heat Index: 37°   Visibility: 10mi
Dew Point: 32°   Wind: 15mph
Humidity: 81%   Direction: 310°NW
Pressure: 30.11"   Gusts: 22mph
Location:  41.4°N, 90.9°W
Report Text: KMUT 291635Z AUTO 31013G19KT 10SM OVC018 03/M00 A3011 RMK AO2
Loading
Personal Weather Stations






























Interactive Weather Map New forecast layout! Learn more

10-Day Weather Forecast

Advertisements
Track Severe Weather on mobile